Jarvisburg, North Carolina
Current Conditions -  °F | °C
As of 12:35 PM on Tuesday 21 Oct 2014 (Local Time) from KONX Reporting Station
Clear Clear  
Wind Chill: 73°   Ceiling: Unl
Heat Index: 73°   Visibility: 10mi
Dew Point: 50°   Wind: 8mph
Humidity: 44%   Direction: 230°SW
Pressure: 29.87"   Gusts: NA
Location:  36.2°N, 75.87°W
Report Text: KONX 211635Z AUTO 23007KT 180V240 10SM CLR 23/10 A2987 RMK AO2 T02300100
Loading
Personal Weather Stations






























Interactive Weather Map
Tropical Storm Tracking
New forecast layout! Learn more

10-Day Weather Forecast

Advertisements
Track Severe Weather on mobile